createdAt,value
2022-09-09T00:01:31.549Z,70761.28
2022-09-09T00:04:13.621Z,70772.84
2022-09-09T00:07:33.732Z,70711.13
2022-09-09T00:10:25.394Z,70736.88
2022-09-09T00:13:17.122Z,70694.31
2022-09-09T00:15:59.096Z,70707.00
2022-09-09T00:18:34.798Z,70710.59
2022-09-09T00:21:18.281Z,70723.34
2022-09-09T00:23:55.769Z,70710.06
2022-09-09T00:26:51.006Z,70652.16
2022-09-09T00:29:43.978Z,70686.75
2022-09-09T00:32:19.759Z,70674.34
2022-09-09T00:34:57.153Z,70696.84
2022-09-09T00:37:29.249Z,70683.56
2022-09-09T00:40:01.080Z,70683.56
2022-09-09T00:42:52.524Z,70693.59
2022-09-09T00:45:31.474Z,70715.47
2022-09-09T00:48:05.780Z,70704.53
2022-09-09T00:51:16.355Z,70702.75
2022-09-09T00:54:20.653Z,70654.41
2022-09-09T00:56:58.454Z,70688.16
2022-09-09T00:59:33.324Z,70642.97
2022-09-09T01:02:02.290Z,70650.72
2022-09-09T01:04:37.712Z,70653.13
2022-09-09T01:07:19.957Z,70637.16
2022-09-09T01:10:01.947Z,70628.97
2022-09-09T01:12:47.975Z,70619.50
2022-09-09T01:15:33.008Z,70607.41
2022-09-09T01:18:11.081Z,70630.69
2022-09-09T01:21:22.970Z,70625.94
2022-09-09T01:23:59.908Z,70621.00
2022-09-09T01:26:42.773Z,70597.69
2022-09-09T01:29:21.766Z,70630.44
2022-09-09T01:31:54.995Z,70668.41
2022-09-09T01:34:24.474Z,70663.13
2022-09-09T01:36:58.394Z,70658.41
2022-09-09T01:39:26.838Z,70637.22
2022-09-09T01:42:01.289Z,70632.19
2022-09-09T01:44:31.402Z,70598.88
2022-09-09T01:46:58.828Z,70641.44
2022-09-09T01:49:25.969Z,70638.47
2022-09-09T01:51:57.336Z,70629.00
2022-09-09T01:54:36.984Z,70610.13
2022-09-09T01:57:32.083Z,70605.09
2022-09-09T01:59:59.093Z,70638.47
2022-09-09T02:02:37.173Z,70632.25
2022-09-09T02:05:42.347Z,70655.03
2022-09-09T02:08:39.392Z,70613.66
2022-09-09T02:11:18.599Z,70610.78
2022-09-09T02:14:01.604Z,70610.53
2022-09-09T02:16:55.764Z,70630.34
2022-09-09T02:19:36.326Z,70611.72
2022-09-09T02:22:14.964Z,70589.56
2022-09-09T02:24:42.018Z,70601.41
2022-09-09T02:27:24.099Z,70570.84
2022-09-09T02:29:57.287Z,70603.19
2022-09-09T02:32:40.423Z,70586.97
2022-09-09T02:35:18.399Z,70568.97
2022-09-09T02:37:50.875Z,70548.16
2022-09-09T02:40:18.347Z,70553.34
2022-09-09T02:42:50.668Z,70569.00
2022-09-09T02:45:32.697Z,70556.72
2022-09-09T02:48:21.594Z,70628.34
2022-09-09T02:51:19.663Z,70566.34
2022-09-09T02:54:00.177Z,70548.97
2022-09-09T02:56:31.297Z,70561.69
2022-09-09T02:58:59.494Z,70560.50
2022-09-09T03:01:27.519Z,70573.22
2022-09-09T03:03:56.098Z,70564.41
2022-09-09T03:06:24.248Z,70582.13
2022-09-09T03:09:02.645Z,70526.41
2022-09-09T03:11:30.052Z,70546.22
2022-09-09T03:13:58.070Z,70547.22
2022-09-09T03:16:26.772Z,70486.16
2022-09-09T03:18:55.942Z,70487.59
2022-09-09T03:21:23.239Z,70506.56
2022-09-09T03:23:50.746Z,70480.06
2022-09-09T03:26:17.817Z,70472.22
2022-09-09T03:28:47.235Z,70505.47
2022-09-09T03:31:19.319Z,70520.41
2022-09-09T03:33:46.902Z,70473.38
2022-09-09T03:36:16.455Z,70500.63
2022-09-09T03:38:43.798Z,70495.13
2022-09-09T03:41:11.645Z,70512.69
2022-09-09T03:43:40.527Z,70502.34
2022-09-09T03:46:07.809Z,70505.63
2022-09-09T03:48:35.182Z,70547.47
2022-09-09T03:51:03.420Z,70492.94
2022-09-09T03:53:34.304Z,70512.44
2022-09-09T03:56:03.225Z,70427.78
2022-09-09T03:58:31.235Z,70535.53
2022-09-09T04:01:09.802Z,70540.53
2022-09-09T04:03:38.128Z,70489.28
2022-09-09T04:06:08.767Z,70469.19
2022-09-09T04:08:36.781Z,70489.28
2022-09-09T04:11:07.473Z,70505.13
2022-09-09T04:13:41.139Z,70550.50
2022-09-09T04:16:14.343Z,70529.22
2022-09-09T04:18:44.384Z,70505.00
2022-09-09T04:21:13.351Z,70529.84
2022-09-09T04:23:41.309Z,70510.88
2022-09-09T04:26:08.458Z,70531.50
2022-09-09T04:28:38.233Z,70528.22
2022-09-09T04:31:21.207Z,70499.63
2022-09-09T04:33:53.626Z,70500.94
2022-09-09T04:36:22.107Z,70546.72
2022-09-09T04:38:51.140Z,70532.00
2022-09-09T04:41:18.627Z,70527.94
2022-09-09T04:43:49.262Z,70564.63
2022-09-09T04:46:18.460Z,70559.41
2022-09-09T04:48:46.268Z,70613.06
2022-09-09T04:51:15.362Z,70582.13
2022-09-09T04:53:44.541Z,70547.03
2022-09-09T04:56:16.277Z,70544.50
2022-09-09T04:58:49.120Z,70563.03
2022-09-09T05:01:23.459Z,70596.06
2022-09-09T05:03:53.722Z,70618.47
2022-09-09T05:06:23.728Z,70573.16
2022-09-09T05:08:56.589Z,70628.47
2022-09-09T05:11:30.932Z,70647.59
2022-09-09T05:14:04.087Z,70616.25
2022-09-09T05:16:32.952Z,70657.91
2022-09-09T05:19:00.104Z,70651.06
2022-09-09T05:21:35.704Z,70658.09
2022-09-09T05:24:03.230Z,70663.09
2022-09-09T05:26:32.545Z,70659.03
2022-09-09T05:29:01.468Z,70666.91
2022-09-09T05:31:31.981Z,70697.25
2022-09-09T05:34:02.536Z,70718.47
2022-09-09T05:36:29.705Z,70698.34
2022-09-09T05:38:57.610Z,70710.69
2022-09-09T05:41:27.063Z,70744.34
2022-09-09T05:43:56.697Z,70754.34
2022-09-09T05:46:26.123Z,70733.59
2022-09-09T05:48:55.188Z,70759.81
2022-09-09T05:51:31.318Z,70786.19
2022-09-09T05:54:01.890Z,70818.28
2022-09-09T05:56:33.409Z,70732.75
2022-09-09T05:59:01.930Z,70755.84
2022-09-09T06:01:33.139Z,70770.88
2022-09-09T06:04:03.373Z,70783.66
2022-09-09T06:06:40.985Z,70775.91
2022-09-09T06:09:18.082Z,70800.06
2022-09-09T06:11:45.336Z,70851.00
2022-09-09T06:14:13.778Z,70844.38
2022-09-09T06:16:44.169Z,70862.03
2022-09-09T06:19:17.631Z,70859.66
2022-09-09T06:21:45.405Z,70879.72
2022-09-09T06:24:14.816Z,70840.00
2022-09-09T06:26:42.098Z,70912.16
2022-09-09T06:29:12.325Z,70874.28
2022-09-09T06:31:40.622Z,70899.75
2022-09-09T06:34:14.316Z,70893.16
2022-09-09T06:36:46.867Z,70901.50
2022-09-09T06:39:15.268Z,70942.81
2022-09-09T06:41:43.925Z,70945.50
2022-09-09T06:44:35.402Z,70915.84
2022-09-09T06:47:04.370Z,70908.69
2022-09-09T06:49:32.662Z,70961.63
2022-09-09T06:52:00.095Z,70939.94
2022-09-09T06:54:29.502Z,70950.25
2022-09-09T06:56:56.632Z,70982.41
2022-09-09T06:59:24.467Z,70995.66
2022-09-09T07:01:56.278Z,71045.41
2022-09-09T07:04:24.312Z,71007.00
2022-09-09T07:06:53.322Z,70971.34
2022-09-09T07:09:24.897Z,71105.13
2022-09-09T07:11:54.575Z,71093.50
2022-09-09T07:14:23.642Z,71057.56
2022-09-09T07:17:01.941Z,71103.06
2022-09-09T07:19:35.220Z,71116.66
2022-09-09T07:22:05.039Z,71148.09
2022-09-09T07:24:33.925Z,71150.50
2022-09-09T07:27:02.036Z,71156.31
2022-09-09T07:29:30.121Z,71126.03
2022-09-09T07:31:58.134Z,71166.97
2022-09-09T07:34:31.561Z,71214.41
2022-09-09T07:36:59.399Z,71195.34
2022-09-09T07:39:26.950Z,71181.53
2022-09-09T07:41:55.718Z,71210.59
2022-09-09T07:44:27.786Z,71195.41
2022-09-09T07:47:02.147Z,71214.97
2022-09-09T07:49:35.787Z,71191.06
2022-09-09T07:54:42.834Z,71285.94
2022-09-09T07:57:10.983Z,71351.53
2022-09-09T07:59:39.159Z,71349.28
2022-09-09T08:02:07.015Z,71396.16
2022-09-09T08:04:36.431Z,71428.34
2022-09-09T08:07:05.233Z,71481.13
2022-09-09T08:09:42.362Z,71500.00
2022-09-09T08:12:19.286Z,71517.28
2022-09-09T08:14:46.378Z,71543.88
2022-09-09T08:17:13.403Z,71573.22
2022-09-09T08:19:40.452Z,71573.78
2022-09-09T08:22:15.197Z,71530.63
2022-09-09T08:24:42.165Z,71533.59
2022-09-09T08:27:10.949Z,71535.34
2022-09-09T08:29:38.911Z,71510.41
2022-09-09T08:32:06.519Z,71580.16
2022-09-09T08:34:34.904Z,71596.28
2022-09-09T08:37:06.953Z,71646.53
2022-09-09T08:39:39.065Z,71665.09
2022-09-09T08:42:29.019Z,71690.16
2022-09-09T08:45:23.958Z,71640.69
2022-09-09T08:48:08.770Z,71646.81
2022-09-09T08:50:39.594Z,71643.25
2022-09-09T08:53:31.137Z,71631.38
2022-09-09T08:56:09.230Z,71676.88
2022-09-09T08:59:04.312Z,71710.84
2022-09-09T09:01:56.067Z,71692.97
2022-09-09T09:04:51.498Z,71682.56
2022-09-09T09:07:43.565Z,71657.22
2022-09-09T09:10:41.860Z,71648.59
2022-09-09T09:13:21.673Z,71625.09
2022-09-09T09:16:07.749Z,71627.09
2022-09-09T09:18:36.150Z,71662.59
2022-09-09T09:21:30.012Z,71658.97
2022-09-09T09:24:01.761Z,71627.53
2022-09-09T09:26:36.188Z,71584.81
2022-09-09T09:29:17.842Z,71450.97
2022-09-09T09:36:00.860Z,71082.09
2022-09-09T09:41:19.362Z,71132.09
2022-09-09T09:43:55.361Z,71213.28
2022-09-09T09:46:26.641Z,71321.19
2022-09-09T09:49:09.918Z,71354.41
2022-09-09T09:51:38.837Z,71438.03
2022-09-09T09:54:32.358Z,71711.44
2022-09-09T09:57:18.290Z,72010.56
2022-09-09T09:59:47.669Z,72267.50
2022-09-09T10:02:27.403Z,72999.75
2022-09-09T10:05:13.383Z,73672.97
2022-09-09T10:07:47.156Z,74783.44
2022-09-09T10:10:24.890Z,75691.66
2022-09-09T10:13:01.300Z,76056.97
2022-09-09T10:15:37.604Z,77019.44
2022-09-09T10:18:44.478Z,77317.44
2022-09-09T10:21:49.463Z,74341.41
2022-09-09T10:25:02.254Z,72297.47
2022-09-09T10:27:46.217Z,72410.28
2022-09-09T10:30:21.007Z,72594.25
2022-09-09T10:33:11.101Z,72733.94
2022-09-09T10:36:03.954Z,72868.84
2022-09-09T10:38:49.330Z,72874.44
2022-09-09T10:41:46.381Z,72887.63
2022-09-09T10:44:41.700Z,73015.06
2022-09-09T10:47:18.263Z,73135.06
2022-09-09T10:50:13.883Z,73281.59
2022-09-09T10:53:01.647Z,73408.59
2022-09-09T10:55:43.953Z,73532.41
2022-09-09T10:58:29.368Z,73463.50
2022-09-09T11:01:03.256Z,73505.19
2022-09-09T11:03:34.366Z,73447.09
2022-09-09T11:06:07.372Z,73426.19
2022-09-09T11:08:39.558Z,73436.22
2022-09-09T11:11:28.153Z,73366.13
2022-09-09T11:14:22.347Z,73052.09
2022-09-09T11:16:53.386Z,72821.03
2022-09-09T11:19:26.601Z,72682.09
2022-09-09T11:21:56.211Z,72573.91
2022-09-09T11:24:36.541Z,72449.03
2022-09-09T11:27:31.872Z,72314.41
2022-09-09T11:30:05.136Z,72203.53
2022-09-09T11:32:53.859Z,72164.91
2022-09-09T11:35:21.834Z,72154.91
2022-09-09T11:38:19.013Z,72321.03
2022-09-09T11:40:48.489Z,72423.19
2022-09-09T11:43:24.774Z,72540.19
2022-09-09T11:46:00.514Z,72623.13
2022-09-09T11:48:46.666Z,72828.75
2022-09-09T11:51:27.157Z,72753.53
2022-09-09T11:54:03.501Z,72628.28
2022-09-09T11:56:46.773Z,72680.38
2022-09-09T11:59:27.516Z,72708.56
2022-09-09T12:02:19.777Z,72547.06
2022-09-09T12:04:59.187Z,72390.66
2022-09-09T12:07:31.416Z,72356.13
2022-09-09T12:10:07.931Z,72438.47
2022-09-09T12:12:43.042Z,72519.38
2022-09-09T12:15:11.299Z,72574.47
2022-09-09T12:17:54.312Z,72502.22
2022-09-09T12:20:52.960Z,72450.53
2022-09-09T12:23:30.582Z,72421.56
2022-09-09T12:26:13.377Z,72347.59
2022-09-09T12:28:48.295Z,72310.88
2022-09-09T12:31:50.936Z,72246.81
2022-09-09T12:34:23.880Z,72180.31
2022-09-09T12:36:59.152Z,72181.28
2022-09-09T12:39:39.252Z,72161.94
2022-09-09T12:42:16.845Z,72149.53
2022-09-09T12:44:53.505Z,72124.19
2022-09-09T12:47:28.199Z,72234.53
2022-09-09T12:49:57.738Z,72204.88
2022-09-09T12:52:32.499Z,72192.88
2022-09-09T12:55:03.297Z,72152.69
2022-09-09T12:57:40.096Z,72192.03
2022-09-09T13:00:18.243Z,72186.28
2022-09-09T13:02:54.994Z,72252.06
2022-09-09T13:05:25.202Z,72270.38
2022-09-09T13:07:53.334Z,72243.78
2022-09-09T13:10:36.899Z,72170.75
2022-09-09T13:13:21.070Z,72105.06
2022-09-09T13:16:19.112Z,72134.94
2022-09-09T13:18:47.667Z,72148.88
2022-09-09T13:21:15.721Z,72192.44
2022-09-09T13:23:49.132Z,72249.69
2022-09-09T13:26:29.689Z,72271.22
2022-09-09T13:29:08.904Z,72245.56
2022-09-09T13:31:38.594Z,72253.25
2022-09-09T13:34:28.407Z,72322.53
2022-09-09T13:37:07.322Z,72260.72
2022-09-09T13:39:38.860Z,72298.03
2022-09-09T13:42:08.065Z,72218.00
2022-09-09T13:44:42.637Z,72208.91
2022-09-09T13:47:16.053Z,72229.72
2022-09-09T13:49:43.540Z,72153.03
2022-09-09T13:52:12.938Z,72148.34
2022-09-09T13:54:40.670Z,72129.53
2022-09-09T13:57:18.395Z,72164.06
2022-09-09T14:00:04.023Z,72095.75
2022-09-09T14:02:32.503Z,72093.25
2022-09-09T14:04:59.863Z,72096.97
2022-09-09T14:07:27.671Z,71995.22
2022-09-09T14:09:55.108Z,72016.25
2022-09-09T14:12:22.539Z,72016.84
2022-09-09T14:14:50.654Z,72059.38
2022-09-09T14:17:18.415Z,72026.38
2022-09-09T14:19:46.933Z,72011.66
2022-09-09T14:22:14.471Z,72046.09
2022-09-09T14:24:41.994Z,72043.38
2022-09-09T14:27:09.662Z,72108.91
2022-09-09T14:29:37.298Z,72095.38
2022-09-09T14:32:08.325Z,72076.69
2022-09-09T14:34:38.416Z,72118.63
2022-09-09T14:37:06.154Z,72144.00
2022-09-09T14:39:33.515Z,72143.63
2022-09-09T14:42:00.851Z,72158.81
2022-09-09T14:44:28.190Z,72181.22
2022-09-09T14:46:55.532Z,72169.53
2022-09-09T14:49:22.932Z,72166.22
2022-09-09T14:51:50.297Z,72186.38
2022-09-09T14:54:17.927Z,72149.47
2022-09-09T14:56:45.361Z,72151.03
2022-09-09T14:59:14.062Z,72117.56
2022-09-09T15:01:42.116Z,72112.19
2022-09-09T15:04:12.698Z,72110.84
2022-09-09T15:06:40.968Z,72161.22
2022-09-09T15:09:08.365Z,72042.56
2022-09-09T15:11:38.820Z,72001.25
2022-09-09T15:14:07.746Z,72001.34
2022-09-09T15:16:35.997Z,71986.78
2022-09-09T15:19:04.303Z,71983.75
2022-09-09T15:21:35.341Z,71990.34
2022-09-09T15:24:03.115Z,71961.56
2022-09-09T15:26:31.094Z,71975.53
2022-09-09T15:29:00.403Z,72041.06
2022-09-09T15:31:31.298Z,72058.63
2022-09-09T15:34:04.293Z,72006.88
2022-09-09T15:36:42.037Z,71975.41
2022-09-09T15:39:16.569Z,71934.25
2022-09-09T15:41:46.235Z,71902.41
2022-09-09T15:44:14.831Z,71889.31
2022-09-09T15:46:44.754Z,71828.91
2022-09-09T15:49:20.972Z,71791.47
2022-09-09T15:51:53.635Z,71806.81
2022-09-09T15:54:24.247Z,71767.47
2022-09-09T15:56:56.505Z,71735.88
2022-09-09T15:59:29.224Z,71706.75
2022-09-09T16:01:57.262Z,71636.41
2022-09-09T16:04:25.879Z,71698.03
2022-09-09T16:07:02.046Z,71667.63
2022-09-09T16:09:30.315Z,71659.91
2022-09-09T16:12:01.690Z,71645.31
2022-09-09T16:14:29.834Z,71671.28
2022-09-09T16:16:57.553Z,71673.72
2022-09-09T16:19:24.896Z,71635.19
2022-09-09T16:21:52.336Z,71635.63
2022-09-09T16:24:21.305Z,71638.91
2022-09-09T16:26:51.992Z,71641.94
2022-09-09T16:29:20.414Z,71642.91
2022-09-09T16:31:49.217Z,71641.72
2022-09-09T16:34:18.582Z,71584.75
2022-09-09T16:36:47.301Z,71589.00
2022-09-09T16:39:17.406Z,71556.50
2022-09-09T16:41:46.487Z,71572.09
2022-09-09T16:44:16.716Z,71563.19
2022-09-09T16:46:45.533Z,71569.19
2022-09-09T16:49:15.902Z,71552.59
2022-09-09T16:51:54.240Z,71546.03
2022-09-09T16:54:22.936Z,71545.44
2022-09-09T16:56:50.450Z,71530.03
2022-09-09T16:59:22.636Z,71539.88
2022-09-09T17:01:52.253Z,71561.28
2022-09-09T17:04:26.513Z,71536.25
2022-09-09T17:06:55.450Z,71528.19
2022-09-09T17:09:23.986Z,71509.09
2022-09-09T17:11:52.978Z,71515.19
2022-09-09T17:14:22.502Z,71510.25
2022-09-09T17:16:50.497Z,71462.38
2022-09-09T17:19:18.492Z,71466.66
2022-09-09T17:22:15.477Z,71398.25
2022-09-09T17:24:35.847Z,71389.97
2022-09-09T17:27:03.339Z,71435.84
2022-09-09T17:29:30.722Z,71409.72
2022-09-09T17:31:58.414Z,71412.72
2022-09-09T17:34:26.126Z,71370.59
2022-09-09T17:36:53.599Z,71363.16
2022-09-09T17:39:21.400Z,71348.06
2022-09-09T17:41:49.484Z,71368.69
2022-09-09T17:44:16.859Z,71314.31
2022-09-09T17:46:46.323Z,71316.16
2022-09-09T17:49:16.721Z,71285.25
2022-09-09T17:51:45.511Z,71310.31
2022-09-09T17:54:15.866Z,71271.38
2022-09-09T17:56:45.965Z,71287.75
2022-09-09T17:59:15.330Z,71309.47
2022-09-09T18:01:45.722Z,71251.50
2022-09-09T18:04:15.447Z,71286.03
2022-09-09T18:06:48.735Z,71265.00
2022-09-09T18:09:19.703Z,71293.88
2022-09-09T18:11:50.142Z,71264.16
2022-09-09T18:14:20.655Z,71242.50
2022-09-09T18:16:49.262Z,71261.94
2022-09-09T18:19:20.270Z,71205.19
2022-09-09T18:21:49.277Z,71215.91
2022-09-09T18:24:19.879Z,71213.25
2022-09-09T18:26:48.445Z,71154.44
2022-09-09T18:29:19.981Z,71206.13
2022-09-09T18:31:48.892Z,71204.31
2022-09-09T18:34:18.537Z,71213.84
2022-09-09T18:39:31.060Z,71203.22
2022-09-09T18:42:00.711Z,71200.31
2022-09-09T18:44:30.908Z,71178.38
2022-09-09T18:46:58.577Z,71189.66
2022-09-09T18:49:26.618Z,71177.19
2022-09-09T18:51:54.085Z,71175.47
2022-09-09T18:54:23.987Z,71153.22
2022-09-09T18:56:52.898Z,71141.38
2022-09-09T18:59:23.682Z,71137.50
2022-09-09T19:01:52.469Z,71150.63
2022-09-09T19:04:22.482Z,71139.91
2022-09-09T19:06:57.647Z,71129.59
2022-09-09T19:09:28.929Z,71140.34
2022-09-09T19:11:56.658Z,71144.16
2022-09-09T19:14:24.151Z,71117.44
2022-09-09T19:16:51.760Z,71138.25
2022-09-09T19:19:22.525Z,71118.63
2022-09-09T19:21:51.669Z,71151.28
2022-09-09T19:24:24.588Z,71133.81
2022-09-09T19:26:54.531Z,71118.97
2022-09-09T19:29:24.614Z,71066.63
2022-09-09T19:32:36.532Z,71097.03
2022-09-09T19:34:44.027Z,71102.16
2022-09-09T19:37:15.223Z,71087.91
2022-09-09T19:39:46.473Z,71088.81
2022-09-09T19:42:13.967Z,71115.28
2022-09-09T19:44:41.566Z,71033.84
2022-09-09T19:47:08.942Z,71077.34
2022-09-09T19:49:37.050Z,71113.88
2022-09-09T19:52:05.002Z,71097.59
2022-09-09T19:54:32.985Z,71074.41
2022-09-09T19:57:01.218Z,71105.28
2022-09-09T19:59:28.727Z,71074.41
2022-09-09T20:01:56.719Z,71086.53
2022-09-09T20:04:24.858Z,71096.38
2022-09-09T20:06:53.206Z,71106.75
2022-09-09T20:09:21.877Z,71071.72
2022-09-09T20:11:50.024Z,71075.91
2022-09-09T20:14:18.158Z,71077.38
2022-09-09T20:16:46.626Z,71078.00
2022-09-09T20:19:16.328Z,71070.84
2022-09-09T20:21:47.839Z,71043.00
2022-09-09T20:24:18.331Z,71044.28
2022-09-09T20:26:48.229Z,71060.91
2022-09-09T20:29:18.719Z,70998.59
2022-09-09T20:31:46.915Z,71036.00
2022-09-09T20:34:18.437Z,71038.38
2022-09-09T20:36:46.605Z,71043.13
2022-09-09T20:39:16.880Z,71006.63
2022-09-09T20:41:46.012Z,71044.03
2022-09-09T20:44:19.192Z,71082.91
2022-09-09T20:46:49.538Z,71048.78
2022-09-09T20:49:19.979Z,71073.44
2022-09-09T20:51:49.691Z,71077.88
2022-09-09T20:54:23.682Z,71055.00
2022-09-09T20:56:52.630Z,71036.31
2022-09-09T20:59:23.224Z,71051.75
2022-09-09T21:01:51.731Z,71040.16
2022-09-09T21:04:20.463Z,71067.19
2022-09-09T21:06:50.184Z,71047.59
2022-09-09T21:09:19.288Z,71081.44
2022-09-09T21:11:47.227Z,71033.34
2022-09-09T21:14:15.243Z,71035.69
2022-09-09T21:16:42.993Z,71044.31
2022-09-09T21:19:10.469Z,71052.06
2022-09-09T21:21:37.931Z,71047.59
2022-09-09T21:24:05.867Z,71068.97
2022-09-09T21:26:33.330Z,71056.50
2022-09-09T21:29:00.817Z,71087.13
2022-09-09T21:31:28.769Z,71044.72
2022-09-09T21:33:57.633Z,71026.66
2022-09-09T21:36:25.382Z,71062.75
2022-09-09T21:38:52.990Z,71019.47
2022-09-09T21:41:20.472Z,71015.38
2022-09-09T21:43:54.281Z,70995.81
2022-09-09T21:46:23.330Z,71025.53
2022-09-09T21:48:50.966Z,70978.66
2022-09-09T21:51:18.962Z,70991.75
2022-09-09T21:53:46.379Z,70968.88
2022-09-09T21:56:17.484Z,70990.56
2022-09-09T21:58:46.853Z,71004.34
2022-09-09T22:01:19.867Z,70973.53
2022-09-09T22:03:47.307Z,70969.09
2022-09-09T22:06:16.672Z,70940.91
2022-09-09T22:08:45.556Z,70946.63
2022-09-09T22:11:15.774Z,70952.56
2022-09-09T22:13:45.926Z,70966.81
2022-09-09T22:16:17.188Z,70952.31
2022-09-09T22:18:45.438Z,70948.81
2022-09-09T22:21:16.298Z,70948.88
2022-09-09T22:23:44.178Z,70905.09
2022-09-09T22:26:12.136Z,70924.41
2022-09-09T22:28:40.537Z,70913.72
2022-09-09T22:31:07.896Z,70885.88
2022-09-09T22:33:35.953Z,70918.81
2022-09-09T22:36:04.000Z,70903.69
2022-09-09T22:38:34.888Z,70906.97
2022-09-09T22:41:03.099Z,70906.41
2022-09-09T22:43:32.927Z,70890.38
2022-09-09T22:46:04.144Z,70887.19
2022-09-09T22:48:36.641Z,70860.41
2022-09-09T22:51:06.730Z,70836.41
2022-09-09T22:53:35.624Z,70864.09
2022-09-09T22:56:07.110Z,70840.66
2022-09-09T22:58:36.834Z,70839.78
2022-09-09T23:01:30.979Z,70807.69
2022-09-09T23:04:02.905Z,70846.28
2022-09-09T23:06:31.811Z,70823.41
2022-09-09T23:09:02.398Z,70837.97
2022-09-09T23:11:32.465Z,70877.09
2022-09-09T23:14:01.973Z,70853.38
2022-09-09T23:16:33.667Z,70829.13
2022-09-09T23:19:01.956Z,70820.56
2022-09-09T23:21:30.687Z,70821.81
2022-09-09T23:23:59.789Z,70809.72
2022-09-09T23:26:29.682Z,70833.94
2022-09-09T23:28:58.549Z,70821.03
2022-09-09T23:31:29.175Z,70806.28
2022-09-09T23:33:58.143Z,70805.69
2022-09-09T23:36:26.538Z,70787.63
2022-09-09T23:38:56.149Z,70798.91
2022-09-09T23:41:23.988Z,70795.13
2022-09-09T23:43:53.106Z,70777.09
2022-09-09T23:46:28.224Z,70749.88
2022-09-09T23:48:57.449Z,70813.47
2022-09-09T23:51:27.304Z,70760.25
2022-09-09T23:53:56.908Z,70808.22
2022-09-09T23:56:27.442Z,70769.78
2022-09-09T23:58:56.049Z,70792.31
